sensor_id;sensor_type;location;lat;lon;timestamp;temperature;humidity
52103;DHT22;38101;53.126;6.878;2024-03-08T17:18:13;8.80;99.90
52103;DHT22;38101;53.126;6.878;2024-03-08T17:20:40;8.60;99.90
52103;DHT22;38101;53.126;6.878;2024-03-08T17:23:08;8.30;99.90
52103;DHT22;38101;53.126;6.878;2024-03-08T17:25:38;8.10;99.90
52103;DHT22;38101;53.126;6.878;2024-03-08T17:28:05;8.00;99.90
52103;DHT22;38101;53.126;6.878;2024-03-08T17:30:32;7.80;99.90
52103;DHT22;38101;53.126;6.878;2024-03-08T17:33:00;7.70;99.90
52103;DHT22;38101;53.126;6.878;2024-03-08T17:35:30;7.60;99.90
52103;DHT22;38101;53.126;6.878;2024-03-08T17:37:58;7.60;99.90
52103;DHT22;38101;53.126;6.878;2024-03-08T17:40:28;7.40;99.90
52103;DHT22;38101;53.126;6.878;2024-03-08T17:42:56;7.40;99.90
52103;DHT22;38101;53.126;6.878;2024-03-08T17:45:23;7.20;99.90
52103;DHT22;38101;53.126;6.878;2024-03-08T17:47:51;7.20;99.90
52103;DHT22;38101;53.126;6.878;2024-03-08T17:50:20;7.10;99.90
52103;DHT22;38101;53.126;6.878;2024-03-08T17:52:47;7.00;99.90
52103;DHT22;38101;53.126;6.878;2024-03-08T17:55:14;7.00;99.90
52103;DHT22;38101;53.126;6.878;2024-03-08T17:57:45;6.90;99.90
52103;DHT22;38101;53.126;6.878;2024-03-08T18:00:12;6.90;99.90
52103;DHT22;38101;53.126;6.878;2024-03-08T18:02:51;6.80;99.90
52103;DHT22;38101;53.126;6.878;2024-03-08T18:05:20;6.70;99.90
52103;DHT22;38101;53.126;6.878;2024-03-08T18:07:53;6.80;99.90
52103;DHT22;38101;53.126;6.878;2024-03-08T18:10:19;6.80;99.90
52103;DHT22;38101;53.126;6.878;2024-03-08T18:12:50;6.70;99.90
52103;DHT22;38101;53.126;6.878;2024-03-08T18:15:26;6.70;99.90
52103;DHT22;38101;53.126;6.878;2024-03-08T18:17:53;6.60;99.90
52103;DHT22;38101;53.126;6.878;2024-03-08T18:20:20;6.60;99.90
52103;DHT22;38101;53.126;6.878;2024-03-08T18:22:50;6.50;99.90
52103;DHT22;38101;53.126;6.878;2024-03-08T18:25:16;6.50;99.90
52103;DHT22;38101;53.126;6.878;2024-03-08T18:27:45;6.50;99.90
52103;DHT22;38101;53.126;6.878;2024-03-08T18:30:12;6.40;99.90
52103;DHT22;38101;53.126;6.878;2024-03-08T18:32:47;6.30;99.90
52103;DHT22;38101;53.126;6.878;2024-03-08T18:35:14;6.30;99.90
52103;DHT22;38101;53.126;6.878;2024-03-08T18:37:42;6.30;99.90
52103;DHT22;38101;53.126;6.878;2024-03-08T18:40:08;6.20;99.90
52103;DHT22;38101;53.126;6.878;2024-03-08T18:42:45;6.20;99.90
52103;DHT22;38101;53.126;6.878;2024-03-08T18:45:12;6.20;99.90
52103;DHT22;38101;53.126;6.878;2024-03-08T18:47:44;6.20;99.90
52103;DHT22;38101;53.126;6.878;2024-03-08T18:50:12;6.20;99.90
52103;DHT22;38101;53.126;6.878;2024-03-08T18:52:39;6.20;99.90
52103;DHT22;38101;53.126;6.878;2024-03-08T18:55:06;6.20;99.90
52103;DHT22;38101;53.126;6.878;2024-03-08T18:57:38;6.20;99.90
52103;DHT22;38101;53.126;6.878;2024-03-08T19:00:19;6.20;99.90
52103;DHT22;38101;53.126;6.878;2024-03-08T19:03:05;6.20;99.90
52103;DHT22;38101;53.126;6.878;2024-03-08T19:05:34;6.30;99.90
52103;DHT22;38101;53.126;6.878;2024-03-08T19:08:02;6.30;99.90
52103;DHT22;38101;53.126;6.878;2024-03-08T19:10:32;6.30;99.90
52103;DHT22;38101;53.126;6.878;2024-03-08T19:12:58;6.20;99.90
52103;DHT22;38101;53.126;6.878;2024-03-08T19:15:28;6.10;99.90
52103;DHT22;38101;53.126;6.878;2024-03-08T19:17:55;6.00;99.90
52103;DHT22;38101;53.126;6.878;2024-03-08T19:20:23;6.00;99.90
52103;DHT22;38101;53.126;6.878;2024-03-08T19:22:50;5.90;99.90
52103;DHT22;38101;53.126;6.878;2024-03-08T19:25:26;5.90;99.90
52103;DHT22;38101;53.126;6.878;2024-03-08T19:27:58;5.90;99.90
52103;DHT22;38101;53.126;6.878;2024-03-08T19:30:29;5.90;99.90
52103;DHT22;38101;53.126;6.878;2024-03-08T19:32:57;5.80;99.90
52103;DHT22;38101;53.126;6.878;2024-03-08T19:35:23;5.80;99.90
52103;DHT22;38101;53.126;6.878;2024-03-08T19:37:51;5.70;99.90
52103;DHT22;38101;53.126;6.878;2024-03-08T19:40:24;5.70;99.90
52103;DHT22;38101;53.126;6.878;2024-03-08T19:42:52;5.70;99.90
52103;DHT22;38101;53.126;6.878;2024-03-08T19:45:24;5.80;99.90
52103;DHT22;38101;53.126;6.878;2024-03-08T19:48:03;5.80;99.90
52103;DHT22;38101;53.126;6.878;2024-03-08T19:50:35;5.80;99.90
52103;DHT22;38101;53.126;6.878;2024-03-08T19:53:07;5.90;99.90
52103;DHT22;38101;53.126;6.878;2024-03-08T19:55:38;5.80;99.90
52103;DHT22;38101;53.126;6.878;2024-03-08T19:58:05;5.90;99.90
52103;DHT22;38101;53.126;6.878;2024-03-08T20:00:32;5.90;99.90
52103;DHT22;38101;53.126;6.878;2024-03-08T20:03:00;5.90;99.90
52103;DHT22;38101;53.126;6.878;2024-03-08T20:05:27;5.90;99.90
52103;DHT22;38101;53.126;6.878;2024-03-08T20:07:54;5.80;99.90
52103;DHT22;38101;53.126;6.878;2024-03-08T20:10:23;5.80;99.90
52103;DHT22;38101;53.126;6.878;2024-03-08T20:12:50;5.90;99.90
52103;DHT22;38101;53.126;6.878;2024-03-08T20:15:17;5.80;99.90
52103;DHT22;38101;53.126;6.878;2024-03-08T20:17:44;5.80;99.90
52103;DHT22;38101;53.126;6.878;2024-03-08T20:20:11;5.80;99.90
52103;DHT22;38101;53.126;6.878;2024-03-08T20:22:50;5.70;99.90
52103;DHT22;38101;53.126;6.878;2024-03-08T20:25:20;5.80;99.90
52103;DHT22;38101;53.126;6.878;2024-03-08T20:27:55;5.90;99.90
52103;DHT22;38101;53.126;6.878;2024-03-08T20:30:28;5.80;99.90
52103;DHT22;38101;53.126;6.878;2024-03-08T20:32:56;5.70;99.90
52103;DHT22;38101;53.126;6.878;2024-03-08T20:35:23;5.70;99.90
52103;DHT22;38101;53.126;6.878;2024-03-08T20:37:50;5.70;99.90
52103;DHT22;38101;53.126;6.878;2024-03-08T20:40:17;5.70;99.90
52103;DHT22;38101;53.126;6.878;2024-03-08T20:42:52;5.60;99.90
52103;DHT22;38101;53.126;6.878;2024-03-08T20:45:18;5.60;99.90
52103;DHT22;38101;53.126;6.878;2024-03-08T20:47:44;5.60;99.90
52103;DHT22;38101;53.126;6.878;2024-03-08T20:50:13;5.60;99.90
52103;DHT22;38101;53.126;6.878;2024-03-08T20:52:43;5.60;99.90
52103;DHT22;38101;53.126;6.878;2024-03-08T20:55:12;5.70;99.90
52103;DHT22;38101;53.126;6.878;2024-03-08T20:57:40;5.70;99.90
52103;DHT22;38101;53.126;6.878;2024-03-08T21:00:12;5.60;99.90
